Time;durP1;ratioP1;P1;durP2;ratioP2;P2;SDS_P1;SDS_P2;PMS_P1;PMS_P2;Temp;Humidity;BMP_temperature;BMP_pressure;BME280_temperature;BME280_humidity;BME280_pressure;Samples;Min_cycle;Max_cycle;Signal;HPM_P1;HPM_P2
2024/02/05 00:01:32;;;;;;;5.93;5.33;;;11.20;99.90;;;;;;5073127;28;20221;-70
2024/02/05 00:03:57;;;;;;;6.67;5.23;;;11.20;99.90;;;;;;5073194;28;20283;-71
2024/02/05 00:06:23;;;;;;;10.37;5.80;;;11.20;99.90;;;;;;5073103;28;20201;-70
2024/02/05 00:08:52;;;;;;;12.33;5.60;;;11.20;99.90;;;;;;5073224;28;20193;-70
2024/02/05 00:11:18;;;;;;;12.17;5.23;;;11.20;99.90;;;;;;5073297;28;20185;-71
2024/02/05 00:13:43;;;;;;;13.73;5.70;;;11.20;99.90;;;;;;5073540;28;20178;-71
2024/02/05 00:16:10;;;;;;;6.87;6.03;;;11.20;99.90;;;;;;5072689;28;20201;-70
2024/02/05 00:18:36;;;;;;;12.07;5.50;;;11.20;99.90;;;;;;5072780;28;20181;-70
2024/02/05 00:21:02;;;;;;;11.47;5.60;;;11.20;99.90;;;;;;5072616;28;20662;-70
2024/02/05 00:23:27;;;;;;;9.60;5.97;;;11.20;99.90;;;;;;5072491;28;20653;-71
2024/02/05 00:25:53;;;;;;;8.00;5.63;;;11.20;99.90;;;;;;5072738;28;20301;-71
2024/02/05 00:28:19;;;;;;;12.33;5.57;;;11.20;99.90;;;;;;5072829;28;20528;-71
2024/02/05 00:30:44;;;;;;;14.00;5.73;;;11.20;99.90;;;;;;5072487;28;20170;-70
2024/02/05 00:33:10;;;;;;;12.93;5.63;;;11.20;99.90;;;;;;5072321;28;20220;-71
2024/02/05 00:35:36;;;;;;;12.33;5.13;;;11.20;99.90;;;;;;5072249;28;20560;-70
2024/02/05 00:38:03;;;;;;;11.30;5.77;;;11.20;99.90;;;;;;5071183;28;20178;-70
2024/02/05 00:40:28;;;;;;;12.90;6.23;;;11.20;99.90;;;;;;5072834;28;20166;-69
2024/02/05 00:42:54;;;;;;;12.30;6.70;;;11.20;99.90;;;;;;5072319;28;20182;-71
2024/02/05 00:45:19;;;;;;;14.00;6.13;;;11.20;99.90;;;;;;5072302;28;20177;-71
2024/02/05 00:47:45;;;;;;;16.20;6.57;;;11.20;99.90;;;;;;5072178;28;20205;-69
2024/02/05 00:50:11;;;;;;;13.33;6.13;;;11.20;99.90;;;;;;5072035;28;20257;-71
2024/02/05 00:52:36;;;;;;;11.67;5.13;;;11.20;99.90;;;;;;5072174;28;20215;-70
2024/02/05 00:55:02;;;;;;;14.87;5.73;;;11.20;99.90;;;;;;5072203;28;20177;-70
2024/02/05 00:57:30;;;;;;;11.53;6.00;;;11.20;99.90;;;;;;5071806;28;20655;-71
2024/02/05 00:59:56;;;;;;;10.63;5.60;;;11.20;99.90;;;;;;5071942;28;20623;-72
2024/02/05 01:02:23;;;;;;;11.63;5.63;;;11.20;99.90;;;;;;5072029;28;20198;-70
2024/02/05 01:04:49;;;;;;;13.33;5.83;;;11.20;99.90;;;;;;5072037;28;20166;-71
2024/02/05 01:07:15;;;;;;;9.13;5.63;;;11.20;99.90;;;;;;5070350;28;20190;-70
2024/02/05 01:09:41;;;;;;;14.73;6.30;;;11.20;99.90;;;;;;5071958;28;20181;-71
2024/02/05 01:12:07;;;;;;;19.47;6.37;;;11.20;99.90;;;;;;5072034;28;20205;-70
2024/02/05 01:14:33;;;;;;;10.70;5.20;;;11.20;99.90;;;;;;5071998;28;20166;-70
2024/02/05 01:16:59;;;;;;;12.90;6.50;;;11.20;99.90;;;;;;5071742;28;20201;-70
2024/02/05 01:19:25;;;;;;;16.77;6.53;;;11.20;99.90;;;;;;5071762;28;20167;-71
2024/02/05 01:21:50;;;;;;;15.83;6.00;;;11.20;99.90;;;;;;5071964;28;20189;-71
2024/02/05 01:24:16;;;;;;;10.77;5.80;;;11.20;99.90;;;;;;5072415;28;20171;-71
2024/02/05 01:26:42;;;;;;;14.37;5.77;;;11.20;99.90;;;;;;5071783;28;20259;-69
2024/02/05 01:29:08;;;;;;;13.17;6.27;;;11.20;99.90;;;;;;5071919;28;20170;-70
2024/02/05 01:31:34;;;;;;;14.53;6.10;;;11.20;99.90;;;;;;5071819;28;20190;-70
2024/02/05 01:34:01;;;;;;;8.00;5.50;;;11.10;99.90;;;;;;5072105;28;20197;-70
2024/02/05 01:36:26;;;;;;;21.70;6.40;;;11.20;99.90;;;;;;5071905;28;20186;-72
2024/02/05 01:38:52;;;;;;;11.87;5.23;;;11.20;99.90;;;;;;5072116;28;20181;-70
2024/02/05 01:41:18;;;;;;;18.33;6.63;;;11.10;99.90;;;;;;5071782;28;20717;-70
2024/02/05 01:43:44;;;;;;;8.13;5.33;;;11.10;99.90;;;;;;5071962;28;20186;-72
2024/02/05 01:46:19;;;;;;;12.17;5.70;;;11.20;99.90;;;;;;5072793;28;20186;-70
2024/02/05 01:48:45;;;;;;;19.60;6.70;;;11.20;99.90;;;;;;5072687;28;20181;-71
2024/02/05 01:51:16;;;;;;;18.50;6.40;;;11.20;99.90;;;;;;5072260;28;20192;-69
2024/02/05 01:53:42;;;;;;;11.30;5.57;;;11.20;99.90;;;;;;5071686;28;20177;-70
2024/02/05 01:56:12;;;;;;;17.20;6.30;;;11.10;99.90;;;;;;5071469;28;20571;-70
2024/02/05 01:58:38;;;;;;;17.40;6.80;;;11.10;99.90;;;;;;5071589;28;20166;-71
2024/02/05 02:01:09;;;;;;;11.53;5.50;;;11.10;99.90;;;;;;5071325;28;20197;-71
2024/02/05 02:03:41;;;;;;;16.30;6.30;;;11.10;99.90;;;;;;5071153;28;20170;-71
2024/02/05 02:06:11;;;;;;;14.53;6.03;;;11.10;99.90;;;;;;5071355;28;20201;-70
2024/02/05 02:08:41;;;;;;;16.70;6.50;;;11.10;99.90;;;;;;5071143;28;20181;-71
2024/02/05 02:11:07;;;;;;;13.23;6.17;;;11.10;99.90;;;;;;5072912;28;20543;-70
2024/02/05 02:13:34;;;;;;;17.37;6.23;;;11.10;99.90;;;;;;5075795;28;20170;-71
2024/02/05 02:16:02;;;;;;;14.33;5.83;;;11.10;99.90;;;;;;5075700;28;20201;-71
2024/02/05 02:18:31;;;;;;;19.13;7.27;;;11.10;99.90;;;;;;5073986;28;20178;-70
2024/02/05 02:20:58;;;;;;;20.60;7.27;;;11.10;99.90;;;;;;5075248;28;20244;-70
2024/02/05 02:23:29;;;;;;;16.37;6.93;;;11.10;99.90;;;;;;5075426;28;20185;-69
2024/02/05 02:25:58;;;;;;;21.67;7.20;;;11.10;99.90;;;;;;5075057;28;20170;-69
2024/02/05 02:28:23;;;;;;;14.73;6.90;;;11.10;99.90;;;;;;5074822;28;20178;-70
2024/02/05 02:30:53;;;;;;;21.13;7.30;;;11.10;99.90;;;;;;5074929;28;20174;-70
2024/02/05 02:33:31;;;;;;;16.23;6.50;;;11.10;99.90;;;;;;5074674;28;20170;-71
2024/02/05 02:36:04;;;;;;;19.73;7.03;;;11.00;99.90;;;;;;5074885;28;20236;-69
2024/02/05 02:38:43;;;;;;;15.03;6.57;;;11.10;99.90;;;;;;5075011;28;20533;-70
2024/02/05 02:41:16;;;;;;;13.87;6.53;;;11.00;99.90;;;;;;5074961;28;20205;-70
2024/02/05 02:44:01;;;;;;;12.50;6.23;;;11.10;99.90;;;;;;5074906;28;20185;-71
2024/02/05 02:46:28;;;;;;;20.07;6.13;;;11.00;99.90;;;;;;5074527;28;20294;-71
2024/02/05 02:48:54;;;;;;;22.33;6.27;;;11.10;99.90;;;;;;5074729;28;20587;-71
2024/02/05 02:51:19;;;;;;;12.83;6.30;;;11.00;99.90;;;;;;5074453;28;20182;-70
2024/02/05 02:53:45;;;;;;;16.60;6.80;;;11.00;99.90;;;;;;5074528;28;20655;-70
2024/02/05 02:56:11;;;;;;;18.23;6.43;;;11.00;99.90;;;;;;5074107;28;20202;-71
2024/02/05 02:58:36;;;;;;;17.67;7.83;;;11.00;99.90;;;;;;5074179;28;20219;-72
2024/02/05 03:01:04;;;;;;;18.53;6.90;;;11.00;99.90;;;;;;5134657;22;20227;-89
2024/02/05 03:03:30;;;;;;;14.33;6.50;;;11.00;99.90;;;;;;5156707;27;20204;-89
2024/02/05 03:05:56;;;;;;;14.70;6.13;;;11.00;99.90;;;;;;5144085;27;20176;-89
2024/02/05 03:08:22;;;;;;;20.10;7.10;;;11.00;99.90;;;;;;5137569;27;20288;-88
2024/02/05 03:10:48;;;;;;;17.67;6.47;;;11.00;99.90;;;;;;5122327;28;20664;-89
2024/02/05 03:13:14;;;;;;;19.77;6.17;;;11.00;99.90;;;;;;5122957;28;20193;-89
2024/02/05 03:15:40;;;;;;;21.53;7.03;;;11.00;99.90;;;;;;5123078;28;20177;-89
2024/02/05 03:18:08;;;;;;;21.37;6.43;;;11.00;99.90;;;;;;5122710;28;20183;-89
2024/02/05 03:20:36;;;;;;;17.07;6.57;;;11.00;99.90;;;;;;5121653;28;20172;-89
2024/02/05 03:23:05;;;;;;;20.23;6.10;;;11.00;99.90;;;;;;5127346;27;20192;-88
2024/02/05 03:25:32;;;;;;;18.23;7.10;;;11.00;99.90;;;;;;5125711;27;20191;-89
2024/02/05 03:27:59;;;;;;;21.00;6.57;;;11.00;99.90;;;;;;5142368;27;20168;-89
2024/02/05 03:30:30;;;;;;;19.10;6.40;;;11.00;99.90;;;;;;5143018;27;20172;-89
2024/02/05 03:33:01;;;;;;;14.47;6.17;;;11.00;99.90;;;;;;5151735;27;20196;-89
2024/02/05 03:35:28;;;;;;;13.37;5.50;;;11.00;99.90;;;;;;5143956;27;20245;-88
2024/02/05 03:37:54;;;;;;;14.80;5.77;;;11.00;99.90;;;;;;5124091;27;20643;-90
2024/02/05 03:40:23;;;;;;;14.27;6.13;;;11.00;99.90;;;;;;5122522;28;20187;-87
2024/02/05 03:42:50;;;;;;;21.80;8.13;;;11.00;99.90;;;;;;5121958;28;20216;-89
2024/02/05 03:45:22;;;;;;;16.73;6.40;;;10.90;99.90;;;;;;5121491;28;20196;-88
2024/02/05 03:47:48;;;;;;;22.07;6.73;;;11.00;99.90;;;;;;5122230;28;20176;-89
2024/02/05 03:50:14;;;;;;;22.53;7.33;;;10.90;99.90;;;;;;5123230;28;20168;-88
2024/02/05 03:52:42;;;;;;;20.20;6.33;;;10.90;99.90;;;;;;5139062;27;20271;-88
2024/02/05 03:55:10;;;;;;;23.20;6.83;;;11.00;99.90;;;;;;5125385;27;20180;-89
2024/02/05 03:57:41;;;;;;;17.23;5.87;;;10.90;99.90;;;;;;5143210;27;20176;-88
2024/02/05 04:00:10;;;;;;;17.43;6.50;;;10.90;99.90;;;;;;5143291;27;20212;-88
2024/02/05 04:02:37;;;;;;;10.43;5.27;;;10.90;99.90;;;;;;5142101;27;20215;-89
2024/02/05 04:05:03;;;;;;;15.30;6.53;;;10.90;99.90;;;;;;5131623;27;20623;-89
2024/02/05 04:07:29;;;;;;;15.90;5.77;;;10.90;99.90;;;;;;5122122;28;20344;-89
2024/02/05 04:09:57;;;;;;;18.87;7.13;;;10.90;99.90;;;;;;5121023;28;20169;-88
2024/02/05 04:12:23;;;;;;;21.80;6.43;;;10.90;99.90;;;;;;5121509;28;20295;-88
2024/02/05 04:14:49;;;;;;;25.10;7.00;;;10.80;99.90;;;;;;5103877;28;20655;-88
2024/02/05 04:17:15;;;;;;;19.00;6.30;;;10.90;99.90;;;;;;5121477;28;20208;-89
2024/02/05 04:19:43;;;;;;;15.33;6.30;;;10.80;99.90;;;;;;5130006;27;20191;-88
2024/02/05 04:22:10;;;;;;;16.00;6.37;;;10.80;99.90;;;;;;5141685;27;20250;-87
2024/02/05 04:24:36;;;;;;;14.77;6.70;;;10.80;99.90;;;;;;5141512;27;20183;-87
2024/02/05 04:27:03;;;;;;;21.10;7.20;;;10.80;99.90;;;;;;5125010;27;20284;-87
2024/02/05 04:29:30;;;;;;;13.07;6.33;;;10.80;99.90;;;;;;5141612;27;20404;-88
2024/02/05 04:31:56;;;;;;;19.60;7.23;;;10.80;99.90;;;;;;5124438;27;20200;-88
2024/02/05 04:34:22;;;;;;;21.63;7.03;;;10.80;99.90;;;;;;5141197;27;20172;-89
2024/02/05 04:36:49;;;;;;;13.90;6.10;;;10.80;99.90;;;;;;5123959;27;20203;-88
2024/02/05 04:39:15;;;;;;;26.53;7.33;;;10.80;99.90;;;;;;5125173;27;20176;-88
2024/02/05 04:41:42;;;;;;;19.03;6.83;;;10.80;99.90;;;;;;5142750;27;20203;-89
2024/02/05 04:44:08;;;;;;;20.23;6.90;;;10.80;99.90;;;;;;5142239;27;20179;-88
2024/02/05 04:46:34;;;;;;;19.47;5.83;;;10.80;99.90;;;;;;5141697;27;20168;-88
2024/02/05 04:48:59;;;;;;;15.70;6.97;;;10.70;99.90;;;;;;5122745;27;20410;-88
2024/02/05 04:51:25;;;;;;;18.20;6.50;;;10.80;99.90;;;;;;5120752;28;20183;-88
2024/02/05 04:53:51;;;;;;;24.13;11.23;;;10.80;99.90;;;;;;5121086;28;20169;-88
2024/02/05 04:56:18;;;;;;;17.10;5.70;;;10.70;99.90;;;;;;5134941;27;20176;-88
2024/02/05 04:58:45;;;;;;;21.10;7.10;;;10.80;99.90;;;;;;5123682;27;20176;-88
2024/02/05 05:01:11;;;;;;;13.23;5.73;;;10.70;99.90;;;;;;5127886;27;20235;-89
2024/02/05 05:03:37;;;;;;;19.57;6.33;;;10.80;99.90;;;;;;5120415;28;20189;-89
2024/02/05 05:06:03;;;;;;;10.73;6.17;;;10.70;99.90;;;;;;5102869;28;20660;-88
2024/02/05 05:08:28;;;;;;;15.03;6.20;;;10.70;99.90;;;;;;5120023;28;20177;-89
2024/02/05 05:10:54;;;;;;;15.80;7.30;;;10.80;99.90;;;;;;5120351;28;20790;-89
2024/02/05 05:13:20;;;;;;;21.13;7.53;;;10.80;99.90;;;;;;5122360;28;20192;-88
2024/02/05 05:15:48;;;;;;;20.17;6.73;;;10.80;99.90;;;;;;5121474;27;20180;-88
2024/02/05 05:18:14;;;;;;;19.97;7.70;;;10.80;99.90;;;;;;5121077;28;20169;-88
2024/02/05 05:20:42;;;;;;;14.57;6.07;;;10.80;99.90;;;;;;5103668;28;20181;-89
2024/02/05 05:23:08;;;;;;;18.97;6.77;;;10.70;99.90;;;;;;5122088;28;20595;-89
2024/02/05 05:25:35;;;;;;;21.37;6.60;;;10.70;99.90;;;;;;5120149;28;20172;-88
2024/02/05 05:28:03;;;;;;;18.13;7.10;;;10.70;99.90;;;;;;5121298;27;20172;-88
2024/02/05 05:30:28;;;;;;;28.63;7.67;;;10.70;99.90;;;;;;5140701;27;20172;-89
2024/02/05 05:32:54;;;;;;;13.50;6.57;;;10.70;99.90;;;;;;5140829;27;20198;-89
2024/02/05 05:35:20;;;;;;;19.93;7.17;;;10.60;99.90;;;;;;5123563;27;20207;-89
2024/02/05 05:37:46;;;;;;;17.77;6.30;;;10.70;99.90;;;;;;5106246;27;20229;-90
2024/02/05 05:40:12;;;;;;;19.10;5.93;;;10.70;99.90;;;;;;5141429;27;20603;-90
2024/02/05 05:42:37;;;;;;;19.87;6.73;;;10.60;99.90;;;;;;5140344;27;20200;-89
2024/02/05 05:45:04;;;;;;;11.93;6.30;;;10.70;99.90;;;;;;5140434;27;20175;-90
2024/02/05 05:47:30;;;;;;;25.50;7.00;;;10.70;99.90;;;;;;5141101;27;20180;-90
2024/02/05 05:49:56;;;;;;;20.73;7.77;;;10.70;99.90;;;;;;5140411;27;20175;-90
2024/02/05 05:52:25;;;;;;;15.77;6.60;;;10.70;99.90;;;;;;5141233;27;20307;-89
2024/02/05 05:54:51;;;;;;;22.77;7.40;;;10.70;99.90;;;;;;5142672;27;20197;-89
2024/02/05 05:57:29;;;;;;;23.87;7.63;;;10.70;99.90;;;;;;5129717;27;20181;-89
2024/02/05 05:59:54;;;;;;;13.57;5.83;;;10.70;99.90;;;;;;5139051;22;20302;-71
2024/02/05 06:02:20;;;;;;;12.57;6.63;;;10.70;99.90;;;;;;5092391;28;20209;-73
2024/02/05 06:04:45;;;;;;;12.73;5.90;;;10.70;99.90;;;;;;5107747;28;20176;-71
2024/02/05 06:07:11;;;;;;;17.10;6.43;;;10.60;99.90;;;;;;5111789;28;20175;-72
2024/02/05 06:09:36;;;;;;;20.93;7.47;;;10.60;99.90;;;;;;5099696;28;20214;-72
2024/02/05 06:14:30;;;;;;;15.77;6.43;;;10.60;99.90;;;;;;5122081;28;20236;-72
2024/02/05 06:16:57;;;;;;;15.93;6.13;;;10.60;99.90;;;;;;5122403;28;20179;-73
2024/02/05 06:19:26;;;;;;;17.17;5.90;;;10.60;99.90;;;;;;5121701;28;20596;-71
2024/02/05 06:21:51;;;;;;;18.53;6.37;;;10.60;99.90;;;;;;5116943;28;20223;-71
2024/02/05 06:24:18;;;;;;;21.27;7.10;;;10.60;99.90;;;;;;5151696;27;20175;-72
2024/02/05 06:26:43;;;;;;;13.17;6.00;;;10.60;99.90;;;;;;5152972;27;20192;-71
2024/02/05 06:29:09;;;;;;;19.93;8.27;;;10.60;99.90;;;;;;5152846;27;20535;-71
2024/02/05 06:31:35;;;;;;;19.73;6.70;;;10.50;99.90;;;;;;5136302;27;20210;-70
2024/02/05 06:34:01;;;;;;;15.50;6.97;;;10.50;99.90;;;;;;5131101;28;20194;-71
2024/02/05 06:36:26;;;;;;;17.37;7.30;;;10.50;99.90;;;;;;5133733;28;20199;-71
2024/02/05 06:38:52;;;;;;;12.73;6.57;;;10.50;99.90;;;;;;5133317;28;20710;-72
2024/02/05 06:41:17;;;;;;;13.63;5.90;;;10.50;99.90;;;;;;5131798;28;20180;-72
2024/02/05 06:43:45;;;;;;;22.43;6.97;;;10.50;99.90;;;;;;5131804;28;20188;-68
2024/02/05 06:46:11;;;;;;;9.97;6.10;;;10.40;99.90;;;;;;5147046;27;20179;-70
2024/02/05 06:48:36;;;;;;;21.83;7.17;;;10.40;99.90;;;;;;5152782;27;20163;-70
2024/02/05 06:51:03;;;;;;;21.07;6.47;;;10.40;99.90;;;;;;5146743;27;20176;-71
2024/02/05 06:53:29;;;;;;;15.80;6.53;;;10.40;99.90;;;;;;5151460;27;20191;-71
2024/02/05 06:55:55;;;;;;;15.60;5.87;;;10.30;99.90;;;;;;5132289;27;20176;-71
2024/02/05 06:58:20;;;;;;;16.47;5.67;;;10.30;99.90;;;;;;5142319;27;20728;-71
2024/02/05 07:00:46;;;;;;;12.60;5.70;;;10.30;99.90;;;;;;5146996;27;20172;-70
2024/02/05 07:03:12;;;;;;;20.20;7.37;;;10.30;99.90;;;;;;5146349;27;20233;-71
2024/02/05 07:05:38;;;;;;;16.90;6.50;;;10.30;99.90;;;;;;5140489;27;20172;-70
2024/02/05 07:08:04;;;;;;;11.50;6.03;;;10.30;99.90;;;;;;5135332;27;20191;-69
2024/02/05 07:10:30;;;;;;;18.00;7.43;;;10.30;99.90;;;;;;5134890;27;20196;-69
2024/02/05 07:12:55;;;;;;;13.90;6.70;;;10.30;99.90;;;;;;5134901;27;20724;-68
2024/02/05 07:15:21;;;;;;;10.70;5.90;;;10.20;99.90;;;;;;5134902;27;20217;-69
2024/02/05 07:17:47;;;;;;;16.87;6.33;;;10.20;99.90;;;;;;5136088;27;20808;-70
2024/02/05 07:20:12;;;;;;;25.20;7.80;;;10.20;99.90;;;;;;5134915;27;20255;-70
2024/02/05 07:22:38;;;;;;;18.87;6.90;;;10.10;99.90;;;;;;5134696;27;20208;-69
2024/02/05 07:25:05;;;;;;;16.27;6.73;;;10.10;99.90;;;;;;5134889;27;20247;-69
2024/02/05 07:27:31;;;;;;;13.67;6.20;;;10.10;99.90;;;;;;5136767;27;20164;-71
2024/02/05 07:29:57;;;;;;;15.63;7.07;;;10.10;99.90;;;;;;5155598;27;20163;-68
2024/02/05 07:32:23;;;;;;;13.27;6.50;;;10.10;99.90;;;;;;5155272;27;20233;-69
2024/02/05 07:34:49;;;;;;;14.53;5.67;;;10.10;99.90;;;;;;5155421;27;20191;-70
2024/02/05 07:37:14;;;;;;;15.50;6.70;;;10.20;99.90;;;;;;5154140;27;20239;-69
2024/02/05 07:39:40;;;;;;;14.53;6.87;;;10.10;99.90;;;;;;5155303;27;20180;-69
2024/02/05 07:42:06;;;;;;;11.37;5.80;;;10.20;99.90;;;;;;5153930;27;20207;-70
2024/02/05 07:44:32;;;;;;;19.27;7.13;;;10.10;99.90;;;;;;5134141;27;20160;-69
2024/02/05 07:46:57;;;;;;;11.03;5.60;;;10.10;99.90;;;;;;5146492;27;20690;-68
2024/02/05 07:49:25;;;;;;;19.23;7.40;;;10.10;99.90;;;;;;5154754;27;20317;-68
2024/02/05 07:51:52;;;;;;;17.80;6.00;;;10.20;99.90;;;;;;5154921;27;20164;-69
2024/02/05 07:54:19;;;;;;;17.87;6.13;;;10.20;99.90;;;;;;5155104;27;20242;-69
2024/02/05 07:56:45;;;;;;;13.53;5.90;;;10.20;99.90;;;;;;5154734;27;20171;-68
2024/02/05 07:59:11;;;;;;;12.07;6.07;;;10.20;99.90;;;;;;5145092;27;20172;-67
2024/02/05 08:01:37;;;;;;;14.47;6.67;;;10.20;99.90;;;;;;5133637;27;20259;-68
2024/02/05 08:04:03;;;;;;;14.83;6.37;;;10.30;99.90;;;;;;5133926;27;20184;-69
2024/02/05 08:06:29;;;;;;;24.63;7.10;;;10.30;99.90;;;;;;5133921;27;20189;-69
2024/02/05 08:08:58;;;;;;;14.17;5.80;;;10.30;99.90;;;;;;5132804;27;20652;-68
2024/02/05 08:11:26;;;;;;;17.17;5.97;;;10.30;99.90;;;;;;5133565;27;20197;-70
2024/02/05 08:13:54;;;;;;;14.50;5.73;;;10.30;99.90;;;;;;5133925;27;20234;-69
2024/02/05 08:16:20;;;;;;;11.90;6.20;;;10.40;99.90;;;;;;5134001;27;20721;-70
2024/02/05 08:18:47;;;;;;;18.87;6.67;;;10.40;99.90;;;;;;5137972;27;20171;-69
2024/02/05 08:21:12;;;;;;;11.80;5.80;;;10.40;99.90;;;;;;5154256;27;20251;-69
2024/02/05 08:23:38;;;;;;;18.83;6.47;;;10.50;99.90;;;;;;5154248;27;20218;-69
2024/02/05 08:26:05;;;;;;;15.63;5.80;;;10.60;99.90;;;;;;5154595;27;20160;-69
2024/02/05 08:28:30;;;;;;;13.60;6.50;;;10.70;99.90;;;;;;5154677;27;20194;-68
2024/02/05 08:30:56;;;;;;;20.30;6.00;;;10.90;99.90;;;;;;5154243;27;20209;-69
2024/02/05 08:33:22;;;;;;;16.60;5.33;;;11.00;99.90;;;;;;5153592;27;20187;-69
2024/02/05 08:35:48;;;;;;;10.70;5.20;;;11.20;99.90;;;;;;5154182;27;20194;-69
2024/02/05 08:38:14;;;;;;;9.77;5.57;;;11.20;99.90;;;;;;5154144;27;20164;-71
2024/02/05 08:40:40;;;;;;;11.53;5.43;;;11.30;99.90;;;;;;5153762;27;20171;-70
2024/02/05 08:43:06;;;;;;;10.30;4.83;;;11.40;99.90;;;;;;5153852;27;20202;-71
2024/02/05 08:45:31;;;;;;;15.90;5.93;;;11.50;99.90;;;;;;5153629;27;20168;-70
2024/02/05 08:47:59;;;;;;;11.40;5.20;;;11.60;99.90;;;;;;5141005;27;20230;-69
2024/02/05 08:50:31;;;;;;;11.23;4.67;;;11.70;99.90;;;;;;5132980;27;20701;-69
2024/02/05 08:52:56;;;;;;;14.97;5.33;;;11.90;99.90;;;;;;5133031;27;20184;-70
2024/02/05 08:55:22;;;;;;;10.00;5.67;;;11.90;93.00;;;;;;5132788;27;20255;-70
2024/02/05 08:57:50;;;;;;;11.23;5.10;;;12.00;99.90;;;;;;5133002;27;20619;-70
2024/02/05 09:00:17;;;;;;;17.00;5.97;;;12.00;76.10;;;;;;5132828;27;20172;-69
2024/02/05 09:02:43;;;;;;;19.20;6.27;;;12.10;1.00;;;;;;5146779;27;20249;-71
2024/02/05 09:05:09;;;;;;;12.67;5.33;;;12.20;1.00;;;;;;5153692;27;20224;-68
2024/02/05 09:07:34;;;;;;;11.43;4.90;;;12.30;1.00;;;;;;5152952;27;20648;-68
2024/02/05 09:10:00;;;;;;;13.37;5.27;;;12.40;1.00;;;;;;5153370;27;20208;-69
2024/02/05 09:12:26;;;;;;;18.30;6.80;;;12.40;1.00;;;;;;5153210;27;20195;-69
2024/02/05 09:14:51;;;;;;;14.47;5.40;;;12.40;1.00;;;;;;5152858;27;20299;-69
2024/02/05 09:17:17;;;;;;;11.33;5.47;;;12.50;1.00;;;;;;5153381;27;20528;-69
2024/02/05 09:19:43;;;;;;;11.80;5.60;;;12.60;35.50;;;;;;5153019;27;20574;-67
2024/02/05 09:22:08;;;;;;;24.70;6.53;;;12.60;99.90;;;;;;5153542;27;20207;-69
2024/02/05 09:24:34;;;;;;;15.20;5.30;;;12.50;99.80;;;;;;5153550;27;20175;-69
2024/02/05 09:27:00;;;;;;;13.03;6.13;;;12.70;99.90;;;;;;5153270;27;20167;-69
2024/02/05 09:29:25;;;;;;;14.83;6.20;;;12.70;71.60;;;;;;5152385;27;20172;-69
2024/02/05 09:31:52;;;;;;;11.60;6.93;;;12.70;99.90;;;;;;5152950;27;20179;-69
2024/02/05 09:34:17;;;;;;;14.90;5.73;;;12.70;99.90;;;;;;5153009;27;20167;-69
2024/02/05 09:36:43;;;;;;;11.93;10.83;;;12.70;99.90;;;;;;5153228;27;20535;-69
2024/02/05 09:39:10;;;;;;;10.80;4.77;;;12.70;99.90;;;;;;5152972;27;20183;-69
2024/02/05 09:41:38;;;;;;;12.73;5.80;;;12.80;99.90;;;;;;5152620;27;20247;-70
2024/02/05 09:44:04;;;;;;;12.47;5.27;;;12.80;99.90;;;;;;5149384;27;20262;-69
2024/02/05 09:46:32;;;;;;;16.60;4.53;;;13.00;99.90;;;;;;5131864;27;20259;-69
2024/02/05 09:49:03;;;;;;;13.00;5.07;;;13.00;99.90;;;;;;5132136;27;20232;-69
2024/02/05 09:51:29;;;;;;;11.13;5.17;;;13.00;99.90;;;;;;5131725;27;20233;-69
2024/02/05 09:53:57;;;;;;;9.30;4.57;;;12.90;72.70;;;;;;5131816;27;20191;-68
2024/02/05 09:56:25;;;;;;;11.33;4.50;;;12.90;99.90;;;;;;5132104;27;20194;-70
2024/02/05 09:58:51;;;;;;;11.70;4.67;;;12.80;99.90;;;;;;5145380;27;20183;-68
2024/02/05 10:01:18;;;;;;;10.47;5.27;;;12.80;99.90;;;;;;5152574;27;20658;-70
2024/02/05 10:03:50;;;;;;;15.60;5.03;;;12.80;99.90;;;;;;5152296;27;20357;-69
2024/02/05 10:06:19;;;;;;;9.20;4.50;;;13.00;99.90;;;;;;5152608;27;20167;-68
2024/02/05 10:08:51;;;;;;;9.97;4.47;;;13.10;99.90;;;;;;5151440;27;20206;-69
2024/02/05 10:11:19;;;;;;;9.73;3.90;;;13.10;99.90;;;;;;5152320;27;20354;-68
2024/02/05 10:13:45;;;;;;;9.87;4.30;;;13.10;99.90;;;;;;5136095;27;20268;-69
2024/02/05 10:16:12;;;;;;;12.47;4.40;;;13.10;99.90;;;;;;5131894;28;20180;-69
2024/02/05 10:18:38;;;;;;;19.33;4.60;;;13.10;99.90;;;;;;5146190;27;20175;-68
2024/02/05 10:21:04;;;;;;;13.30;4.87;;;13.20;99.90;;;;;;5152111;27;20612;-69
2024/02/05 10:23:29;;;;;;;15.63;5.27;;;13.10;99.90;;;;;;5151988;27;20191;-69
2024/02/05 10:26:01;;;;;;;9.47;4.70;;;13.10;99.90;;;;;;5151465;27;20182;-70
2024/02/05 10:28:28;;;;;;;14.13;4.67;;;13.20;99.90;;;;;;5152143;27;20168;-69
2024/02/05 10:31:03;;;;;;;12.73;4.13;;;13.30;99.90;;;;;;5152152;27;20257;-70
2024/02/05 10:33:29;;;;;;;12.50;4.97;;;13.40;99.90;;;;;;5156229;27;20232;-70
2024/02/05 10:35:55;;;;;;;9.93;4.57;;;13.40;99.90;;;;;;5156371;27;20546;-70
2024/02/05 10:38:23;;;;;;;12.00;4.97;;;13.50;99.90;;;;;;5140260;27;20172;-70
2024/02/05 10:40:51;;;;;;;9.80;4.70;;;13.40;99.90;;;;;;5135926;27;20524;-69
2024/02/05 10:43:17;;;;;;;10.13;4.47;;;13.30;99.90;;;;;;5138555;27;20199;-69
2024/02/05 10:45:43;;;;;;;17.57;5.20;;;13.30;99.90;;;;;;5154927;27;20179;-70
2024/02/05 10:48:09;;;;;;;7.67;4.30;;;13.30;99.90;;;;;;5156314;27;20167;-69
2024/02/05 10:50:34;;;;;;;9.17;4.73;;;13.30;99.90;;;;;;5155915;27;20175;-68
2024/02/05 10:53:02;;;;;;;14.70;7.10;;;13.40;99.90;;;;;;5156405;27;20274;-69
2024/02/05 10:55:28;;;;;;;12.57;4.30;;;13.30;99.90;;;;;;5135935;27;20176;-73
2024/02/05 10:57:55;;;;;;;10.50;5.07;;;13.20;99.90;;;;;;5135010;27;20554;-68
2024/02/05 11:00:21;;;;;;;11.73;5.30;;;13.30;99.90;;;;;;5135159;27;20195;-69
2024/02/05 11:02:51;;;;;;;8.63;4.03;;;13.50;99.90;;;;;;5134746;27;20288;-69
2024/02/05 11:05:18;;;;;;;9.60;5.07;;;13.50;99.90;;;;;;5134913;27;20161;-68
2024/02/05 11:07:50;;;;;;;16.47;4.67;;;13.30;99.90;;;;;;5134563;27;20568;-69
2024/02/05 11:10:20;;;;;;;15.97;5.00;;;13.30;99.90;;;;;;5153690;27;20183;-70
2024/02/05 11:12:50;;;;;;;11.00;5.60;;;13.50;99.90;;;;;;5155554;27;20290;-71
2024/02/05 11:15:22;;;;;;;16.33;5.57;;;13.30;99.90;;;;;;5155741;27;20639;-69
2024/02/05 11:17:50;;;;;;;7.93;3.97;;;13.30;99.90;;;;;;5155941;27;20191;-69
2024/02/05 11:20:17;;;;;;;11.53;6.17;;;13.20;99.90;;;;;;5155862;27;20589;-68
2024/02/05 11:22:45;;;;;;;14.23;5.30;;;13.30;99.90;;;;;;5142336;27;20222;-70
2024/02/05 11:25:11;;;;;;;9.83;4.40;;;13.40;99.90;;;;;;5134655;27;20168;-72
2024/02/05 11:27:36;;;;;;;12.27;5.47;;;13.40;99.90;;;;;;5134480;27;20164;-69
2024/02/05 11:30:06;;;;;;;13.40;5.43;;;13.40;99.90;;;;;;5134672;27;20185;-69
2024/02/05 11:32:35;;;;;;;12.97;4.43;;;13.40;99.90;;;;;;5134376;27;20205;-69
2024/02/05 11:35:00;;;;;;;15.50;5.30;;;13.30;99.90;;;;;;5146262;27;20542;-70
2024/02/05 11:37:27;;;;;;;14.30;5.50;;;13.40;99.90;;;;;;5155143;27;20168;-70
2024/02/05 11:39:56;;;;;;;9.00;4.07;;;13.60;99.90;;;;;;5154905;27;20652;-70
2024/02/05 11:42:22;;;;;;;12.10;5.07;;;13.70;99.90;;;;;;5154892;27;20699;-70
2024/02/05 11:44:49;;;;;;;9.00;4.97;;;13.70;99.90;;;;;;5153756;27;20195;-68
2024/02/05 11:47:15;;;;;;;12.67;5.13;;;13.90;99.90;;;;;;5155513;27;20171;-69
2024/02/05 11:49:43;;;;;;;22.90;6.10;;;13.90;99.90;;;;;;5143770;27;20172;-68
2024/02/05 11:52:09;;;;;;;12.83;5.20;;;13.90;99.90;;;;;;5134499;27;20187;-69
2024/02/05 11:54:35;;;;;;;10.47;4.80;;;14.00;99.90;;;;;;5134236;27;20491;-70
2024/02/05 11:57:00;;;;;;;12.73;4.70;;;14.10;99.90;;;;;;5134600;27;20645;-69
2024/02/05 11:59:27;;;;;;;9.80;4.43;;;13.80;99.90;;;;;;5134110;27;20164;-69
2024/02/05 12:01:53;;;;;;;19.20;5.60;;;13.70;99.90;;;;;;5134345;27;20680;-68
2024/02/05 12:04:19;;;;;;;9.23;4.37;;;13.60;99.90;;;;;;5144163;27;20246;-70
2024/02/05 12:06:48;;;;;;;11.83;4.80;;;13.50;99.90;;;;;;5152096;27;20195;-69
2024/02/05 12:09:17;;;;;;;12.47;4.50;;;13.60;99.90;;;;;;5151934;27;20186;-68
2024/02/05 12:11:43;;;;;;;13.00;5.03;;;13.70;99.90;;;;;;5140483;27;20523;-69
2024/02/05 12:14:11;;;;;;;11.17;4.83;;;13.60;99.90;;;;;;5227546;22;20232;-71
2024/02/05 12:16:37;;;;;;;11.17;4.63;;;13.70;99.90;;;;;;5114687;27;20654;-71
2024/02/05 12:19:03;;;;;;;14.43;5.00;;;13.90;99.90;;;;;;5113571;27;20180;-72
2024/02/05 12:21:31;;;;;;;14.80;5.10;;;14.00;99.90;;;;;;5132930;27;20196;-72
2024/02/05 12:23:57;;;;;;;12.07;4.67;;;14.10;99.90;;;;;;5133570;27;20206;-71
2024/02/05 12:26:24;;;;;;;8.00;4.03;;;14.30;99.90;;;;;;5133651;27;20160;-72
2024/02/05 12:28:51;;;;;;;7.30;4.40;;;14.40;99.90;;;;;;5133527;27;20168;-71
2024/02/05 12:31:23;;;;;;;6.67;3.93;;;14.60;99.90;;;;;;5133343;27;20247;-71
2024/02/05 12:34:01;;;;;;;9.00;4.40;;;14.50;93.30;;;;;;5122712;27;20261;-72
2024/02/05 12:36:36;;;;;;;12.97;5.07;;;14.40;20.50;;;;;;5113049;28;20168;-71
2024/02/05 12:39:03;;;;;;;10.20;5.40;;;14.30;99.90;;;;;;5112854;28;20172;-72